createdAt,value
2023-04-09T00:02:48.441Z,100.00
2023-04-09T00:05:56.370Z,100.00
2023-04-09T00:09:02.766Z,100.00
2023-04-09T00:12:08.981Z,100.00
2023-04-09T00:15:24.357Z,100.00
2023-04-09T00:18:36.835Z,100.00
2023-04-09T00:21:44.652Z,100.00
2023-04-09T00:24:51.321Z,100.00
2023-04-09T00:27:58.309Z,100.00
2023-04-09T00:31:04.668Z,100.00
2023-04-09T00:34:11.082Z,100.00
2023-04-09T00:37:18.952Z,100.00
2023-04-09T00:40:25.543Z,100.00
2023-04-09T00:43:32.157Z,100.00
2023-04-09T00:46:38.294Z,100.00
2023-04-09T00:49:44.682Z,100.00
2023-04-09T00:52:52.712Z,100.00
2023-04-09T00:55:59.882Z,100.00
2023-04-09T00:59:06.410Z,100.00
2023-04-09T01:02:12.858Z,100.00
2023-04-09T01:05:19.071Z,100.00
2023-04-09T01:08:35.221Z,100.00
2023-04-09T01:11:47.905Z,100.00
2023-04-09T01:15:01.614Z,100.00
2023-04-09T01:18:11.552Z,100.00
2023-04-09T01:21:21.645Z,100.00
2023-04-09T01:24:42.856Z,100.00
2023-04-09T01:28:09.514Z,100.00
2023-04-09T01:31:19.737Z,100.00
2023-04-09T01:34:27.650Z,100.00
2023-04-09T01:37:34.426Z,100.00
2023-04-09T01:40:41.042Z,100.00
2023-04-09T01:43:50.763Z,100.00
2023-04-09T01:46:59.477Z,100.00
2023-04-09T01:50:06.171Z,100.00
2023-04-09T01:53:12.703Z,100.00
2023-04-09T01:56:18.972Z,100.00
2023-04-09T01:59:26.729Z,100.00
2023-04-09T02:02:40.679Z,100.00
2023-04-09T02:05:58.709Z,100.00
2023-04-09T02:09:07.820Z,100.00
2023-04-09T02:12:17.888Z,100.00
2023-04-09T02:15:26.245Z,100.00
2023-04-09T02:18:32.903Z,100.00
2023-04-09T02:21:39.155Z,100.00
2023-04-09T02:24:45.462Z,100.00
2023-04-09T02:27:51.942Z,100.00
2023-04-09T02:30:59.711Z,100.00
2023-04-09T02:34:06.013Z,100.00
2023-04-09T02:37:12.116Z,100.00
2023-04-09T02:40:18.475Z,100.00
2023-04-09T02:43:25.249Z,100.00
2023-04-09T02:46:32.776Z,100.00
2023-04-09T02:49:39.138Z,100.00
2023-04-09T02:52:47.974Z,100.00
2023-04-09T02:55:53.946Z,100.00
2023-04-09T02:59:00.370Z,100.00
2023-04-09T03:02:08.094Z,100.00
2023-04-09T03:05:14.531Z,100.00
2023-04-09T03:08:21.114Z,100.00
2023-04-09T03:11:27.315Z,100.00
2023-04-09T03:14:34.806Z,100.00
2023-04-09T03:17:42.850Z,100.00
2023-04-09T03:20:49.283Z,100.00
2023-04-09T03:23:55.110Z,100.00
2023-04-09T03:27:00.920Z,100.00
2023-04-09T03:30:07.771Z,100.00
2023-04-09T03:33:15.447Z,100.00
2023-04-09T03:36:21.706Z,100.00
2023-04-09T03:39:30.956Z,100.00
2023-04-09T03:42:37.583Z,100.00
2023-04-09T03:45:43.871Z,100.00
2023-04-09T03:48:51.930Z,100.00
2023-04-09T03:51:58.088Z,100.00
2023-04-09T03:55:05.342Z,100.00
2023-04-09T03:58:11.715Z,100.00
2023-04-09T04:01:18.100Z,100.00
2023-04-09T04:04:25.772Z,100.00
2023-04-09T04:07:33.816Z,100.00
2023-04-09T04:10:40.339Z,100.00
2023-04-09T04:13:46.570Z,100.00
2023-04-09T04:16:53.035Z,100.00
2023-04-09T04:20:00.827Z,100.00
2023-04-09T04:23:07.321Z,100.00
2023-04-09T04:26:13.705Z,100.00
2023-04-09T04:29:20.263Z,100.00
2023-04-09T04:32:26.715Z,100.00
2023-04-09T04:35:34.597Z,100.00
2023-04-09T04:38:42.717Z,100.00
2023-04-09T04:41:48.874Z,100.00
2023-04-09T04:44:55.107Z,100.00
2023-04-09T04:48:01.206Z,100.00
2023-04-09T04:51:08.676Z,100.00
2023-04-09T04:54:14.775Z,100.00
2023-04-09T04:57:20.777Z,100.00
2023-04-09T05:00:26.991Z,100.00
2023-04-09T05:03:33.258Z,100.00
2023-04-09T05:06:40.916Z,100.00
2023-04-09T05:09:47.315Z,97.93
2023-04-09T05:12:54.026Z,96.68
2023-04-09T05:16:00.234Z,100.00
2023-04-09T05:19:06.705Z,100.00
2023-04-09T05:22:14.492Z,100.00
2023-04-09T05:25:20.944Z,100.00
2023-04-09T05:28:28.077Z,100.00
2023-04-09T05:31:34.452Z,100.00
2023-04-09T05:34:41.151Z,100.00
2023-04-09T05:37:49.275Z,99.08
2023-04-09T05:40:55.761Z,94.62
2023-04-09T05:44:01.973Z,94.52
2023-04-09T05:47:08.340Z,95.43
2023-04-09T05:50:14.606Z,91.57
2023-04-09T05:53:23.053Z,90.71
2023-04-09T05:56:29.318Z,89.00
2023-04-09T05:59:35.630Z,87.79
2023-04-09T06:02:42.671Z,85.75
2023-04-09T06:05:49.542Z,86.78
2023-04-09T06:08:57.071Z,89.76
2023-04-09T06:12:04.188Z,85.83
2023-04-09T06:15:11.365Z,81.54
2023-04-09T06:18:18.523Z,81.34
2023-04-09T06:21:24.797Z,78.86
2023-04-09T06:24:34.358Z,81.04
2023-04-09T06:27:41.349Z,82.12
2023-04-09T06:30:49.313Z,84.81
2023-04-09T06:33:55.910Z,81.40
2023-04-09T06:37:02.696Z,83.12
2023-04-09T06:40:11.359Z,84.97
2023-04-09T06:43:17.900Z,83.36
2023-04-09T06:46:24.553Z,83.83
2023-04-09T06:49:31.030Z,82.21
2023-04-09T06:52:37.353Z,80.59
2023-04-09T06:55:45.085Z,81.26
2023-04-09T06:58:51.715Z,78.15
2023-04-09T07:01:58.189Z,74.78
2023-04-09T07:05:04.587Z,78.57
2023-04-09T07:08:11.861Z,74.45
2023-04-09T07:11:19.871Z,71.74
2023-04-09T07:14:26.278Z,69.97
2023-04-09T07:17:33.489Z,70.03
2023-04-09T07:20:39.732Z,70.52
2023-04-09T07:23:46.024Z,70.15
2023-04-09T07:26:54.011Z,71.83
2023-04-09T07:30:01.117Z,69.93
2023-04-09T07:33:07.707Z,66.83
2023-04-09T07:36:14.214Z,65.78
2023-04-09T07:39:21.201Z,67.81
2023-04-09T07:42:28.848Z,64.37
2023-04-09T07:45:35.416Z,63.04
2023-04-09T07:48:41.843Z,63.39
2023-04-09T07:51:48.062Z,65.07
2023-04-09T07:54:54.543Z,63.51
2023-04-09T07:58:02.297Z,69.25
2023-04-09T08:01:08.545Z,67.69
2023-04-09T08:04:15.392Z,67.01
2023-04-09T08:07:22.147Z,65.21
2023-04-09T08:10:28.595Z,63.16
2023-04-09T08:13:36.563Z,63.54
2023-04-09T08:16:47.398Z,64.57
2023-04-09T08:19:53.914Z,62.33
2023-04-09T08:23:00.500Z,61.57
2023-04-09T08:26:07.098Z,60.43
2023-04-09T08:29:15.878Z,62.14
2023-04-09T08:32:22.180Z,63.11
2023-04-09T08:35:29.435Z,60.40
2023-04-09T08:38:35.736Z,60.34
2023-04-09T08:41:44.942Z,62.34
2023-04-09T08:44:52.828Z,61.65
2023-04-09T08:48:00.201Z,63.23
2023-04-09T08:51:06.988Z,65.31
2023-04-09T08:54:17.254Z,70.05
2023-04-09T08:57:23.535Z,71.99
2023-04-09T09:00:31.569Z,69.63
2023-04-09T09:03:55.599Z,63.12
2023-04-09T09:07:08.128Z,61.16
2023-04-09T09:10:14.278Z,61.37
2023-04-09T09:13:23.745Z,63.84
2023-04-09T09:16:31.516Z,59.98
2023-04-09T09:19:38.003Z,59.00
2023-04-09T09:22:54.936Z,57.80
2023-04-09T09:26:01.729Z,57.47
2023-04-09T09:29:08.147Z,54.55
2023-04-09T09:32:16.214Z,56.41
2023-04-09T09:35:23.568Z,54.49
2023-04-09T09:38:30.745Z,56.84
2023-04-09T09:41:37.626Z,54.39
2023-04-09T09:44:44.380Z,52.73
2023-04-09T09:47:53.399Z,52.86
2023-04-09T09:51:00.694Z,53.32
2023-04-09T09:54:09.847Z,56.89
2023-04-09T09:57:19.976Z,54.73
2023-04-09T10:00:28.519Z,50.74
2023-04-09T10:03:38.547Z,54.40
2023-04-09T10:06:46.143Z,51.96
2023-04-09T10:09:55.910Z,51.93
2023-04-09T10:13:02.569Z,49.05
2023-04-09T10:16:08.948Z,50.68
2023-04-09T10:19:17.220Z,48.97
2023-04-09T10:22:28.545Z,51.05
2023-04-09T10:25:35.125Z,52.21
2023-04-09T10:28:41.801Z,54.10
2023-04-09T10:31:50.165Z,54.90
2023-04-09T10:35:01.178Z,54.01
2023-04-09T10:38:11.430Z,55.64
2023-04-09T10:41:23.897Z,55.92
2023-04-09T10:44:31.934Z,57.40
2023-04-09T10:47:39.763Z,56.42
2023-04-09T10:50:47.428Z,55.90
2023-04-09T10:53:54.446Z,55.58
2023-04-09T10:57:20.888Z,54.60
2023-04-09T11:00:27.356Z,53.20
2023-04-09T11:03:39.640Z,53.73
2023-04-09T11:06:49.475Z,54.27
2023-04-09T11:09:56.024Z,54.50
2023-04-09T11:13:03.174Z,52.71
2023-04-09T11:16:09.370Z,53.15
2023-04-09T11:19:16.296Z,55.78
2023-04-09T11:22:23.914Z,55.94
2023-04-09T11:25:32.525Z,57.12
2023-04-09T11:28:42.567Z,57.02
2023-04-09T11:31:48.942Z,59.58
2023-04-09T11:34:55.185Z,61.68
2023-04-09T11:38:02.967Z,63.57
2023-04-09T11:41:13.056Z,61.37
2023-04-09T11:44:19.403Z,60.59
2023-04-09T11:47:26.378Z,60.75
2023-04-09T11:50:33.598Z,59.02
2023-04-09T11:53:41.278Z,58.78
2023-04-09T11:56:55.874Z,57.50
2023-04-09T12:00:07.856Z,59.96
2023-04-09T12:03:16.761Z,61.89
2023-04-09T12:06:24.869Z,59.33
2023-04-09T12:09:33.083Z,59.24
2023-04-09T12:12:44.362Z,59.91
2023-04-09T12:15:51.633Z,61.43
2023-04-09T12:18:57.793Z,63.00
2023-04-09T12:22:03.878Z,63.28
2023-04-09T12:25:12.038Z,64.04
2023-04-09T12:28:18.871Z,61.52
2023-04-09T12:31:25.764Z,63.58
2023-04-09T12:34:32.411Z,64.07
2023-04-09T12:37:39.050Z,64.34
2023-04-09T12:40:46.893Z,63.11
2023-04-09T12:43:53.311Z,61.01
2023-04-09T12:46:59.866Z,63.31
2023-04-09T12:50:07.358Z,60.25
2023-04-09T12:53:13.989Z,58.29
2023-04-09T12:56:21.572Z,56.69
2023-04-09T12:59:27.778Z,56.79
2023-04-09T13:02:34.570Z,57.18
2023-04-09T13:05:41.022Z,57.92
2023-04-09T13:08:47.436Z,60.13
2023-04-09T13:11:55.237Z,63.24
2023-04-09T13:15:01.668Z,66.11
2023-04-09T13:18:08.312Z,67.97
2023-04-09T13:21:18.852Z,74.48
2023-04-09T13:24:26.092Z,79.18
2023-04-09T13:27:33.740Z,82.09
2023-04-09T13:30:40.640Z,89.07
2023-04-09T13:33:47.092Z,90.08
2023-04-09T13:36:53.380Z,90.94
2023-04-09T13:39:59.810Z,92.55
2023-04-09T13:43:07.400Z,92.80
2023-04-09T13:46:13.552Z,97.25
2023-04-09T13:49:32.989Z,95.52
2023-04-09T13:52:39.457Z,95.23
2023-04-09T13:55:45.892Z,96.39
2023-04-09T13:58:53.745Z,99.66
2023-04-09T14:02:00.510Z,100.00
2023-04-09T14:05:07.574Z,100.00
2023-04-09T14:08:13.991Z,100.00
2023-04-09T14:11:20.750Z,100.00
2023-04-09T14:14:28.412Z,100.00
2023-04-09T14:17:35.030Z,100.00
2023-04-09T14:20:41.325Z,100.00
2023-04-09T14:23:47.526Z,100.00
2023-04-09T14:26:54.017Z,100.00
2023-04-09T14:30:01.634Z,100.00
2023-04-09T14:33:08.000Z,100.00
2023-04-09T14:36:14.024Z,100.00
2023-04-09T14:39:20.271Z,100.00
2023-04-09T14:42:26.493Z,100.00
2023-04-09T14:45:34.265Z,100.00
2023-04-09T14:48:40.938Z,100.00
2023-04-09T14:51:47.554Z,100.00
2023-04-09T14:54:54.150Z,100.00
2023-04-09T14:58:01.766Z,100.00
2023-04-09T15:01:09.525Z,99.21
2023-04-09T15:04:15.995Z,99.81
2023-04-09T15:07:23.257Z,98.22
2023-04-09T15:10:31.541Z,99.16
2023-04-09T15:13:37.957Z,97.46
2023-04-09T15:16:45.812Z,95.55
2023-04-09T15:19:53.669Z,95.55
2023-04-09T15:22:59.785Z,96.97
2023-04-09T15:26:06.452Z,97.26
2023-04-09T15:29:13.212Z,100.00
2023-04-09T15:32:20.771Z,100.00
2023-04-09T15:35:29.551Z,100.00
2023-04-09T15:38:36.227Z,100.00
2023-04-09T15:41:43.050Z,100.00
2023-04-09T15:44:49.494Z,100.00
2023-04-09T15:47:57.088Z,100.00
2023-04-09T15:51:04.970Z,100.00
2023-04-09T15:54:11.247Z,100.00
2023-04-09T15:57:18.521Z,100.00
2023-04-09T16:00:25.450Z,100.00
2023-04-09T16:03:39.673Z,100.00
2023-04-09T16:06:45.938Z,100.00
2023-04-09T16:09:52.399Z,100.00
2023-04-09T16:12:58.893Z,100.00
2023-04-09T16:16:07.035Z,100.00
2023-04-09T16:19:14.910Z,100.00
2023-04-09T16:22:21.525Z,100.00
2023-04-09T16:25:28.180Z,100.00
2023-04-09T16:28:34.248Z,100.00
2023-04-09T16:31:42.710Z,100.00
2023-04-09T16:34:52.026Z,100.00
2023-04-09T16:37:58.559Z,100.00
2023-04-09T16:41:04.945Z,100.00
2023-04-09T16:44:11.315Z,100.00
2023-04-09T16:47:17.640Z,100.00
2023-04-09T16:50:25.502Z,100.00
2023-04-09T16:53:32.062Z,100.00
2023-04-09T16:56:38.166Z,100.00
2023-04-09T16:59:45.306Z,100.00
2023-04-09T17:02:51.678Z,100.00
2023-04-09T17:05:59.725Z,100.00
2023-04-09T17:09:06.859Z,100.00
2023-04-09T17:12:13.290Z,100.00
2023-04-09T17:15:19.548Z,100.00
2023-04-09T17:18:25.832Z,100.00
2023-04-09T17:21:34.624Z,100.00
2023-04-09T17:24:40.938Z,100.00
2023-04-09T17:27:47.114Z,100.00
2023-04-09T17:30:53.494Z,100.00
2023-04-09T17:33:59.712Z,100.00
2023-04-09T17:37:07.919Z,100.00
2023-04-09T17:40:15.336Z,100.00
2023-04-09T17:43:22.072Z,100.00
2023-04-09T17:46:29.099Z,100.00
2023-04-09T17:49:35.692Z,100.00
2023-04-09T17:52:43.820Z,100.00
2023-04-09T17:55:51.086Z,100.00
2023-04-09T17:58:58.240Z,100.00
2023-04-09T18:02:05.134Z,100.00
2023-04-09T18:05:12.009Z,100.00
2023-04-09T18:08:20.482Z,100.00
2023-04-09T18:11:27.276Z,100.00
2023-04-09T18:14:33.538Z,100.00
2023-04-09T18:17:40.067Z,100.00
2023-04-09T18:20:55.110Z,100.00
2023-04-09T18:24:11.883Z,100.00
2023-04-09T18:27:18.887Z,100.00
2023-04-09T18:30:26.469Z,100.00
2023-04-09T18:33:33.074Z,100.00
2023-04-09T18:36:41.892Z,100.00
2023-04-09T18:39:50.021Z,100.00
2023-04-09T18:42:56.964Z,100.00
2023-04-09T18:46:03.835Z,100.00
2023-04-09T18:49:11.198Z,100.00
2023-04-09T18:52:17.980Z,100.00
2023-04-09T18:55:25.914Z,100.00
2023-04-09T18:58:33.893Z,100.00
2023-04-09T19:01:40.324Z,100.00
2023-04-09T19:04:47.436Z,100.00
2023-04-09T19:07:59.383Z,100.00
2023-04-09T19:11:08.911Z,100.00
2023-04-09T19:14:15.648Z,100.00
2023-04-09T19:17:22.553Z,100.00
2023-04-09T19:20:29.444Z,100.00
2023-04-09T19:23:36.236Z,100.00
2023-04-09T19:26:44.409Z,100.00
2023-04-09T19:29:50.939Z,100.00
2023-04-09T19:32:57.681Z,100.00
2023-04-09T19:36:04.391Z,100.00
2023-04-09T19:39:11.276Z,100.00
2023-04-09T19:42:19.162Z,100.00
2023-04-09T19:45:25.622Z,100.00
2023-04-09T19:48:32.447Z,100.00
2023-04-09T19:51:38.920Z,100.00
2023-04-09T19:54:44.861Z,100.00
2023-04-09T19:57:52.565Z,100.00
2023-04-09T20:00:58.763Z,100.00
2023-04-09T20:04:05.348Z,100.00
2023-04-09T20:07:12.035Z,100.00
2023-04-09T20:10:21.434Z,100.00
2023-04-09T20:13:30.182Z,100.00
2023-04-09T20:16:36.848Z,100.00
2023-04-09T20:19:43.385Z,100.00
2023-04-09T20:22:56.481Z,100.00
2023-04-09T20:26:03.802Z,100.00
2023-04-09T20:29:12.623Z,100.00
2023-04-09T20:32:18.853Z,100.00
2023-04-09T20:35:25.670Z,100.00
2023-04-09T20:38:32.289Z,100.00
2023-04-09T20:41:38.725Z,100.00
2023-04-09T20:44:46.294Z,100.00
2023-04-09T20:47:53.535Z,100.00
2023-04-09T20:51:00.715Z,100.00
2023-04-09T20:54:07.043Z,100.00
2023-04-09T20:57:14.085Z,100.00
2023-04-09T21:00:21.989Z,100.00
2023-04-09T21:03:28.287Z,100.00
2023-04-09T21:06:35.939Z,100.00
2023-04-09T21:09:42.177Z,100.00
2023-04-09T21:12:48.388Z,100.00
2023-04-09T21:15:56.278Z,100.00
2023-04-09T21:19:07.233Z,100.00
2023-04-09T21:22:13.682Z,100.00
2023-04-09T21:25:19.973Z,100.00
2023-04-09T21:28:26.781Z,100.00
2023-04-09T21:31:35.865Z,100.00
2023-04-09T21:34:42.349Z,100.00
2023-04-09T21:37:48.693Z,100.00
2023-04-09T21:40:55.012Z,100.00
2023-04-09T21:44:08.091Z,100.00
2023-04-09T21:47:15.669Z,100.00
2023-04-09T21:50:22.441Z,100.00
2023-04-09T21:53:28.616Z,100.00
2023-04-09T21:56:35.169Z,100.00
2023-04-09T21:59:42.349Z,100.00
2023-04-09T22:02:49.782Z,100.00
2023-04-09T22:05:55.968Z,100.00
2023-04-09T22:09:02.518Z,100.00
2023-04-09T22:12:08.934Z,100.00
2023-04-09T22:15:15.565Z,100.00
2023-04-09T22:18:23.479Z,100.00
2023-04-09T22:21:29.776Z,100.00
2023-04-09T22:24:36.397Z,100.00
2023-04-09T22:27:43.597Z,100.00
2023-04-09T22:30:50.108Z,100.00
2023-04-09T22:33:58.721Z,100.00
2023-04-09T22:37:06.417Z,100.00
2023-04-09T22:40:14.905Z,100.00
2023-04-09T22:43:21.028Z,100.00
2023-04-09T22:46:27.661Z,100.00
2023-04-09T22:49:35.343Z,100.00
2023-04-09T22:52:41.737Z,100.00
2023-04-09T22:55:50.932Z,100.00
2023-04-09T22:58:57.680Z,100.00
2023-04-09T23:02:04.043Z,100.00
2023-04-09T23:05:12.032Z,100.00
2023-04-09T23:08:18.704Z,100.00
2023-04-09T23:11:25.105Z,100.00
2023-04-09T23:14:31.697Z,100.00
2023-04-09T23:17:38.275Z,100.00
2023-04-09T23:20:46.056Z,100.00
2023-04-09T23:23:52.867Z,100.00
2023-04-09T23:26:59.928Z,100.00
2023-04-09T23:30:07.122Z,100.00
2023-04-09T23:33:13.082Z,100.00
2023-04-09T23:36:20.605Z,100.00
2023-04-09T23:39:27.171Z,100.00
2023-04-09T23:42:34.117Z,100.00
2023-04-09T23:45:40.083Z,100.00
2023-04-09T23:48:46.244Z,100.00
2023-04-09T23:51:54.072Z,100.00
2023-04-09T23:55:00.921Z,100.00
2023-04-09T23:58:07.091Z,100.00
